createdAt,value
2019-02-02T00:00:00.914Z,20.50
2019-02-02T00:02:29.751Z,21.30
2019-02-02T00:05:01.189Z,21.77
2019-02-02T00:07:29.992Z,21.10
2019-02-02T00:09:58.711Z,21.03
2019-02-02T00:12:27.354Z,20.97
2019-02-02T00:14:56.160Z,20.53
2019-02-02T00:17:24.958Z,22.53
2019-02-02T00:19:55.807Z,21.60
2019-02-02T00:22:24.216Z,23.27
2019-02-02T00:24:53.057Z,20.43
2019-02-02T00:27:21.731Z,20.37
2019-02-02T00:29:50.434Z,21.83
2019-02-02T00:32:19.003Z,22.37
2019-02-02T00:34:47.624Z,21.73
2019-02-02T00:37:16.209Z,21.33
2019-02-02T00:39:44.968Z,19.37
2019-02-02T00:42:13.711Z,19.17
2019-02-02T00:44:43.144Z,21.90
2019-02-02T00:47:11.960Z,21.90
2019-02-02T00:49:40.608Z,20.17
2019-02-02T00:52:09.907Z,20.73
2019-02-02T00:54:38.716Z,22.57
2019-02-02T00:57:07.467Z,25.27
2019-02-02T00:59:36.165Z,22.57
2019-02-02T01:02:05.015Z,22.13
2019-02-02T01:04:33.714Z,21.50
2019-02-02T01:07:02.431Z,22.57
2019-02-02T01:09:31.294Z,22.63
2019-02-02T01:11:59.998Z,24.03
2019-02-02T01:14:28.831Z,22.83
2019-02-02T01:16:57.728Z,25.10
2019-02-02T01:19:26.470Z,27.60
2019-02-02T01:21:55.187Z,26.33
2019-02-02T01:24:23.850Z,23.30
2019-02-02T01:26:52.591Z,23.50
2019-02-02T01:29:21.483Z,23.47
2019-02-02T01:31:50.324Z,23.47
2019-02-02T01:34:19.053Z,24.80
2019-02-02T01:36:47.975Z,23.07
2019-02-02T01:39:17.224Z,22.23
2019-02-02T01:41:45.855Z,23.07
2019-02-02T01:44:14.727Z,24.27
2019-02-02T01:46:43.455Z,25.67
2019-02-02T01:49:12.178Z,25.70
2019-02-02T01:51:41.037Z,22.80
2019-02-02T01:54:09.718Z,23.27
2019-02-02T01:56:38.397Z,21.60
2019-02-02T01:59:07.110Z,22.50
2019-02-02T02:01:35.883Z,20.27
2019-02-02T02:04:04.603Z,19.47
2019-02-02T02:16:27.595Z,22.67
2019-02-02T02:18:56.438Z,23.77
2019-02-02T02:22:06.218Z,21.43
2019-02-02T02:31:05.359Z,24.67
2019-02-02T02:31:31.885Z,22.80
2019-02-02T02:33:41.558Z,26.47
2019-02-02T02:36:07.080Z,23.53
2019-02-02T02:38:37.539Z,24.33
2019-02-02T02:41:15.189Z,22.10
2019-02-02T02:43:39.651Z,21.50
2019-02-02T02:46:08.476Z,20.67
2019-02-02T02:48:37.263Z,20.77
2019-02-02T02:51:07.428Z,21.50
2019-02-02T02:53:38.192Z,21.27
2019-02-02T03:56:28.938Z,22.97
2019-02-02T04:41:47.980Z,23.60
2019-02-02T04:44:26.697Z,24.50
2019-02-02T04:47:06.658Z,22.57
2019-02-02T06:11:47.301Z,23.37
2019-02-02T06:14:16.086Z,22.07
2019-02-02T06:16:48.969Z,23.17
2019-02-02T06:19:21.391Z,21.57
2019-02-02T06:21:55.382Z,24.37
2019-02-02T06:24:23.890Z,21.20
2019-02-02T06:26:52.741Z,21.10
2019-02-02T06:29:21.484Z,20.33
2019-02-02T06:31:50.523Z,22.07
2019-02-02T06:38:32.933Z,23.27
2019-02-02T06:41:01.855Z,20.90
2019-02-02T06:43:30.704Z,21.17
2019-02-02T06:45:59.417Z,21.00
2019-02-02T06:48:28.148Z,20.17
2019-02-02T06:50:56.820Z,19.73
2019-02-02T06:53:25.647Z,21.63
2019-02-02T06:55:54.493Z,20.53
2019-02-02T06:58:23.307Z,20.83
2019-02-02T07:00:52.082Z,21.57
2019-02-02T07:03:20.908Z,21.73
2019-02-02T07:05:49.682Z,22.90
2019-02-02T07:08:18.381Z,23.57
2019-02-02T07:10:47.300Z,21.43
2019-02-02T07:13:16.125Z,22.33
2019-02-02T07:15:44.965Z,24.50
2019-02-02T07:18:19.146Z,21.57
2019-02-02T07:20:47.988Z,23.43
2019-02-02T07:23:16.835Z,22.20
2019-02-02T07:25:54.294Z,21.70
2019-02-02T07:31:18.134Z,21.80
2019-02-02T07:34:18.615Z,23.90
2019-02-02T07:36:47.519Z,25.23
2019-02-02T07:39:34.493Z,23.77
2019-02-02T07:42:26.678Z,24.50
2019-02-02T07:45:04.409Z,27.33
2019-02-02T07:48:13.568Z,27.30
2019-02-02T08:08:19.298Z,25.07
2019-02-02T08:17:41.849Z,25.27
2019-02-02T08:20:18.747Z,27.27
2019-02-02T08:22:58.250Z,25.97
2019-02-02T08:25:26.971Z,26.00
2019-02-02T08:27:55.908Z,30.03
2019-02-02T08:30:27.285Z,30.20
2019-02-02T08:32:56.236Z,31.47
2019-02-02T08:35:24.959Z,34.23
2019-02-02T08:37:53.718Z,33.33
2019-02-02T08:40:22.435Z,35.10
2019-02-02T08:42:51.208Z,33.77
2019-02-02T08:45:19.948Z,30.67
2019-02-02T08:47:48.686Z,29.30
2019-02-02T08:50:23.437Z,31.27
2019-02-02T08:52:52.225Z,33.97
2019-02-02T08:55:21.235Z,34.43
2019-02-02T08:57:49.941Z,33.83
2019-02-02T09:00:20.169Z,33.13
2019-02-02T09:02:48.848Z,35.53
2019-02-02T09:05:20.501Z,35.20
2019-02-02T09:07:49.215Z,60.63
2019-02-02T09:10:26.104Z,114.13
2019-02-02T09:12:55.439Z,76.20
2019-02-02T09:15:24.298Z,45.57
2019-02-02T09:17:52.986Z,39.37
2019-02-02T09:20:21.725Z,35.73
2019-02-02T09:23:02.697Z,31.07
2019-02-02T09:25:21.629Z,32.00
2019-02-02T09:27:50.312Z,34.03
2019-02-02T09:30:36.185Z,35.53
2019-02-02T09:33:05.920Z,33.03
2019-02-02T09:35:46.847Z,34.80
2019-02-02T09:38:19.974Z,34.27
2019-02-02T09:40:56.637Z,35.30
2019-02-02T09:43:34.616Z,31.13
2019-02-02T09:46:10.779Z,32.33
2019-02-02T09:48:39.613Z,33.47
2019-02-02T09:51:08.544Z,33.33
2019-02-02T09:53:37.338Z,34.47
2019-02-02T09:56:06.189Z,30.53
2019-02-02T09:58:34.981Z,31.67
2019-02-02T10:01:03.723Z,30.50
2019-02-02T10:03:32.450Z,30.83
2019-02-02T10:06:01.303Z,31.90
2019-02-02T10:08:30.073Z,34.47
2019-02-02T10:10:58.869Z,34.83
2019-02-02T10:13:27.694Z,30.67
2019-02-02T10:15:56.543Z,32.60
2019-02-02T10:18:25.341Z,31.60
2019-02-02T10:21:03.757Z,31.13
2019-02-02T10:23:24.533Z,33.57
2019-02-02T10:25:53.444Z,30.37
2019-02-02T10:28:23.010Z,33.73
2019-02-02T10:30:51.724Z,32.97
2019-02-02T10:33:20.447Z,31.07
2019-02-02T10:35:49.248Z,29.93
2019-02-02T10:38:17.954Z,30.17
2019-02-02T10:40:46.924Z,28.33
2019-02-02T10:43:15.471Z,29.57
2019-02-02T10:45:44.148Z,27.43
2019-02-02T10:48:12.915Z,27.17
2019-02-02T10:50:41.902Z,31.67
2019-02-02T10:53:10.503Z,31.13
2019-02-02T10:55:39.230Z,31.90
2019-02-02T10:58:08.080Z,31.90
2019-02-02T11:00:40.466Z,31.33
2019-02-02T11:03:10.118Z,30.70
2019-02-02T11:05:39.121Z,30.93
2019-02-02T11:08:08.050Z,33.27
2019-02-02T11:10:37.134Z,32.43
2019-02-02T11:13:06.521Z,35.10
2019-02-02T11:15:35.479Z,32.87
2019-02-02T11:18:05.072Z,33.23
2019-02-02T11:20:35.949Z,33.20
2019-02-02T11:23:05.240Z,31.23
2019-02-02T11:25:34.140Z,32.07
2019-02-02T11:28:03.052Z,32.47
2019-02-02T11:30:32.280Z,32.37
2019-02-02T11:33:01.081Z,32.67
2019-02-02T11:35:29.747Z,31.87
2019-02-02T11:37:58.514Z,31.93
2019-02-02T11:40:32.547Z,29.57
2019-02-02T11:43:01.345Z,30.40
2019-02-02T11:45:30.094Z,29.87
2019-02-02T11:47:58.745Z,27.93
2019-02-02T11:50:27.492Z,27.93
2019-02-02T11:52:56.386Z,25.13
2019-02-02T11:55:27.682Z,29.37
2019-02-02T11:57:56.785Z,28.30
2019-02-02T12:00:44.934Z,31.53
2019-02-02T12:03:13.561Z,26.67
2019-02-02T12:05:42.177Z,28.23
2019-02-02T12:08:10.915Z,26.30
2019-02-02T12:10:39.675Z,27.03
2019-02-02T12:13:08.425Z,27.43
2019-02-02T12:15:37.078Z,25.60
2019-02-02T12:18:06.462Z,24.03
2019-02-02T12:20:35.157Z,25.83
2019-02-02T12:23:04.130Z,25.47
2019-02-02T12:25:33.035Z,25.70
2019-02-02T12:28:01.872Z,27.03
2019-02-02T12:30:34.995Z,26.70
2019-02-02T12:33:04.256Z,25.00
2019-02-02T12:35:33.053Z,26.03
2019-02-02T12:38:01.888Z,26.93
2019-02-02T12:40:30.583Z,26.10
2019-02-02T12:42:59.271Z,25.63
2019-02-02T12:45:33.585Z,19.97
2019-02-02T12:48:02.372Z,24.93
2019-02-02T12:50:31.214Z,24.87
2019-02-02T12:53:00.184Z,25.27
2019-02-02T12:55:28.899Z,24.37
2019-02-02T12:57:57.906Z,23.07
2019-02-02T13:00:26.923Z,24.80
2019-02-02T13:02:55.794Z,23.93
2019-02-02T13:05:25.393Z,25.20
2019-02-02T13:07:54.266Z,24.10
2019-02-02T13:10:25.605Z,25.13
2019-02-02T13:12:54.398Z,22.93
2019-02-02T13:15:23.123Z,24.10
2019-02-02T13:17:51.741Z,22.90
2019-02-02T13:20:20.667Z,23.40
2019-02-02T13:22:49.430Z,24.27
2019-02-02T13:25:21.137Z,24.30
2019-02-02T13:27:49.987Z,24.97
2019-02-02T13:30:27.330Z,24.37
2019-02-02T13:32:56.224Z,22.90
2019-02-02T13:35:25.761Z,29.67
2019-02-02T13:37:54.830Z,26.37
2019-02-02T13:40:24.640Z,34.43
2019-02-02T13:42:53.429Z,27.30
2019-02-02T13:45:23.461Z,22.73
2019-02-02T13:47:52.325Z,46.97
2019-02-02T13:50:21.278Z,27.03
2019-02-02T13:52:51.603Z,25.57
2019-02-02T13:55:20.504Z,23.77
2019-02-02T13:57:49.326Z,23.83
2019-02-02T14:00:26.156Z,27.80
2019-02-02T14:03:02.762Z,26.17
2019-02-02T14:05:25.437Z,28.00
2019-02-02T14:07:54.307Z,26.20
2019-02-02T14:10:25.401Z,26.90
2019-02-02T14:12:54.084Z,29.53
2019-02-02T14:15:23.180Z,27.73
2019-02-02T14:17:52.027Z,26.13
2019-02-02T14:20:20.720Z,35.77
2019-02-02T14:22:49.462Z,47.53
2019-02-02T14:25:18.995Z,55.77
2019-02-02T14:27:47.951Z,37.83
2019-02-02T14:30:24.342Z,37.50
2019-02-02T14:32:54.998Z,42.80
2019-02-02T14:35:25.668Z,38.40
2019-02-02T14:37:54.923Z,37.70
2019-02-02T14:40:23.782Z,32.47
2019-02-02T14:42:52.555Z,40.30
2019-02-02T14:45:26.676Z,36.10
2019-02-02T14:47:55.860Z,29.67
2019-02-02T14:50:24.648Z,29.23
2019-02-02T14:52:54.357Z,29.53
2019-02-02T14:55:25.246Z,28.87
2019-02-02T14:57:54.119Z,30.67
2019-02-02T15:00:25.251Z,28.80
2019-02-02T15:02:54.123Z,29.27
2019-02-02T15:05:22.992Z,29.87
2019-02-02T15:07:52.008Z,27.80
2019-02-02T15:10:21.975Z,28.90
2019-02-02T15:12:50.828Z,28.97
2019-02-02T15:15:19.556Z,30.47
2019-02-02T15:17:48.280Z,28.10
2019-02-02T15:20:31.447Z,28.20
2019-02-02T15:23:00.273Z,28.63
2019-02-02T15:25:29.052Z,29.37
2019-02-02T15:27:57.989Z,32.13
2019-02-02T15:30:31.744Z,33.73
2019-02-02T15:33:00.536Z,32.87
2019-02-02T15:35:29.428Z,34.40
2019-02-02T15:37:58.153Z,38.27
2019-02-02T15:40:26.907Z,36.90
2019-02-02T15:42:55.643Z,38.07
2019-02-02T15:45:26.577Z,46.27
2019-02-02T15:47:55.304Z,47.97
2019-02-02T15:50:24.332Z,49.30
2019-02-02T15:53:01.278Z,52.77
2019-02-02T15:55:30.139Z,52.40
2019-02-02T15:57:58.804Z,47.93
2019-02-02T16:00:32.489Z,44.60
2019-02-02T16:03:01.199Z,41.83
2019-02-02T16:05:30.257Z,39.83
2019-02-02T16:08:01.024Z,39.60
2019-02-02T16:10:33.940Z,36.03
2019-02-02T16:13:02.820Z,35.37
2019-02-02T16:15:34.073Z,32.50
2019-02-02T16:18:02.054Z,34.57
2019-02-02T16:20:36.185Z,39.00
2019-02-02T16:23:06.080Z,42.90
2019-02-02T16:25:34.861Z,42.93
2019-02-02T16:28:03.588Z,39.97
2019-02-02T16:30:32.439Z,37.73
2019-02-02T16:33:01.214Z,35.57
2019-02-02T16:35:29.944Z,40.93
2019-02-02T16:37:58.707Z,40.60
2019-02-02T16:40:31.101Z,41.90
2019-02-02T16:42:59.860Z,38.93
2019-02-02T16:45:32.825Z,45.50
2019-02-02T16:48:01.456Z,48.83
2019-02-02T16:50:30.289Z,49.90
2019-02-02T16:52:58.968Z,51.33
2019-02-02T16:55:27.625Z,51.83
2019-02-02T16:57:56.370Z,52.90
2019-02-02T17:00:27.740Z,52.80
2019-02-02T17:02:56.788Z,51.93
2019-02-02T17:05:25.508Z,47.87
2019-02-02T17:07:54.184Z,50.83
2019-02-02T17:10:25.485Z,51.13
2019-02-02T17:12:54.251Z,49.70
2019-02-02T17:15:23.011Z,46.37
2019-02-02T17:17:51.704Z,48.07
2019-02-02T17:20:25.977Z,47.07
2019-02-02T17:22:54.915Z,46.17
2019-02-02T17:25:23.571Z,44.60
2019-02-02T17:27:52.256Z,48.03
2019-02-02T17:30:25.295Z,45.30
2019-02-02T17:32:56.619Z,45.00
2019-02-02T17:35:25.264Z,47.43
2019-02-02T17:37:54.094Z,51.77
2019-02-02T17:40:27.910Z,54.27
2019-02-02T17:42:56.694Z,57.20
2019-02-02T17:45:25.417Z,55.73
2019-02-02T17:47:54.366Z,62.60
2019-02-02T17:50:26.021Z,59.60
2019-02-02T17:52:54.775Z,55.73
2019-02-02T17:55:23.492Z,57.20
2019-02-02T17:57:52.188Z,58.80
2019-02-02T18:00:46.058Z,55.63
2019-02-02T18:03:14.690Z,56.23
2019-02-02T18:05:43.334Z,56.10
2019-02-02T18:08:12.033Z,52.03
2019-02-02T18:10:40.704Z,52.20
2019-02-02T18:13:09.376Z,54.60
2019-02-02T18:15:38.244Z,53.93
2019-02-02T18:18:07.211Z,51.57
2019-02-02T18:20:35.930Z,45.80
2019-02-02T18:23:04.883Z,45.53
2019-02-02T18:25:33.600Z,46.03
2019-02-02T18:28:02.345Z,48.47
2019-02-02T18:30:31.075Z,48.97
2019-02-02T18:33:00.096Z,51.20
2019-02-02T18:35:29.332Z,51.90
2019-02-02T18:37:58.044Z,51.43
2019-02-02T18:40:26.724Z,52.10
2019-02-02T18:42:55.384Z,50.87
2019-02-02T18:45:30.684Z,50.37
2019-02-02T18:47:59.266Z,52.10
2019-02-02T18:50:28.200Z,50.93
2019-02-02T18:52:58.709Z,51.40
2019-02-02T18:55:33.580Z,46.77
2019-02-02T18:58:02.299Z,43.70
2019-02-02T19:00:30.971Z,47.10
2019-02-02T19:02:59.709Z,44.27
2019-02-02T19:05:29.178Z,53.93
2019-02-02T19:07:58.094Z,53.80
2019-02-02T19:10:35.455Z,48.30
2019-02-02T19:13:04.971Z,43.33
2019-02-02T19:15:33.720Z,40.60
2019-02-02T19:18:03.430Z,42.90
2019-02-02T19:20:32.680Z,46.10
2019-02-02T19:23:01.398Z,45.43
2019-02-02T19:25:30.068Z,44.80
2019-02-02T19:27:58.648Z,40.63
2019-02-02T19:30:30.069Z,46.17
2019-02-02T19:32:58.770Z,42.13
2019-02-02T19:35:28.053Z,46.77
2019-02-02T19:37:56.730Z,41.03
2019-02-02T19:40:25.431Z,42.40
2019-02-02T19:42:54.168Z,42.73
2019-02-02T19:45:27.241Z,39.60
2019-02-02T19:47:56.004Z,39.87
2019-02-02T19:50:29.093Z,42.97
2019-02-02T19:52:57.835Z,50.40
2019-02-02T19:55:26.519Z,49.97
2019-02-02T19:57:55.212Z,45.33
2019-02-02T20:00:29.035Z,38.70
2019-02-02T20:02:57.742Z,33.93
2019-02-02T20:05:29.029Z,37.70
2019-02-02T20:07:56.784Z,34.33
2019-02-02T20:10:25.649Z,34.87
2019-02-02T20:12:54.384Z,36.60
2019-02-02T20:15:27.550Z,38.07
2019-02-02T20:17:56.210Z,35.57
2019-02-02T20:20:26.716Z,36.93
2019-02-02T20:22:56.000Z,37.87
2019-02-02T20:25:25.048Z,37.37
2019-02-02T20:27:54.779Z,38.10
2019-02-02T20:30:28.723Z,34.70
2019-02-02T20:32:59.143Z,36.77
2019-02-02T20:35:39.801Z,36.27
2019-02-02T20:38:00.888Z,36.63
2019-02-02T20:40:30.302Z,38.83
2019-02-02T20:42:59.026Z,46.30
2019-02-02T20:45:32.650Z,48.57
2019-02-02T20:48:01.264Z,49.67
2019-02-02T20:50:30.703Z,54.03
2019-02-02T20:52:59.436Z,52.87
2019-02-02T20:55:30.362Z,47.87
2019-02-02T20:57:59.416Z,45.30
2019-02-02T21:00:31.863Z,43.90
2019-02-02T21:03:01.578Z,40.43
2019-02-02T21:05:32.003Z,43.17
2019-02-02T21:08:00.610Z,39.73
2019-02-02T21:10:29.346Z,38.93
2019-02-02T21:12:58.021Z,39.23
2019-02-02T21:15:26.728Z,36.50
2019-02-02T21:17:55.347Z,39.03
2019-02-02T21:20:47.749Z,41.07
2019-02-02T21:23:16.457Z,42.13
2019-02-02T21:25:45.144Z,42.50
2019-02-02T21:28:14.469Z,41.97
2019-02-02T21:30:43.469Z,39.20
2019-02-02T21:33:12.199Z,40.53
2019-02-02T21:35:40.926Z,42.93
2019-02-02T21:38:09.779Z,41.63
2019-02-02T21:40:38.438Z,39.80
2019-02-02T21:43:07.398Z,40.47
2019-02-02T21:45:36.345Z,39.60
2019-02-02T21:48:08.265Z,40.57
2019-02-02T21:50:37.008Z,39.53
2019-02-02T21:53:05.901Z,37.33
2019-02-02T21:55:34.670Z,36.37
2019-02-02T21:58:03.359Z,38.53
2019-02-02T22:00:40.193Z,36.00
2019-02-02T22:03:09.275Z,39.47
2019-02-02T22:05:38.092Z,36.87
2019-02-02T22:08:07.291Z,39.03
2019-02-02T22:10:35.963Z,40.30
2019-02-02T22:13:06.769Z,38.17
2019-02-02T22:15:35.611Z,35.73
2019-02-02T22:18:05.115Z,35.77
2019-02-02T22:20:33.723Z,37.70
2019-02-02T22:23:02.517Z,34.93
2019-02-02T22:25:33.069Z,38.23
2019-02-02T22:28:01.779Z,35.73
2019-02-02T22:30:35.568Z,35.70
2019-02-02T22:33:05.384Z,35.17
2019-02-02T22:35:34.558Z,31.63
2019-02-02T22:38:03.176Z,34.37
2019-02-02T22:40:31.949Z,37.97
2019-02-02T22:43:00.677Z,34.80
2019-02-02T22:45:29.367Z,33.40
2019-02-02T22:47:58.090Z,34.73
2019-02-02T22:50:28.055Z,32.60
2019-02-02T22:52:57.125Z,34.93
2019-02-02T22:55:26.070Z,36.10
2019-02-02T22:57:55.187Z,35.80
2019-02-02T23:00:43.830Z,35.77
2019-02-02T23:03:18.394Z,33.30
2019-02-02T23:06:06.354Z,36.23
2019-02-02T23:08:44.717Z,33.33
2019-02-02T23:11:25.060Z,32.83
2019-02-02T23:14:08.756Z,36.07
2019-02-02T23:16:37.748Z,37.50
2019-02-02T23:19:06.596Z,41.37
2019-02-02T23:21:35.280Z,42.90
2019-02-02T23:24:04.003Z,35.90
2019-02-02T23:26:32.683Z,36.23
2019-02-02T23:29:01.278Z,34.97
2019-02-02T23:31:31.031Z,35.93
2019-02-02T23:33:59.601Z,34.37
2019-02-02T23:36:28.355Z,35.77
2019-02-02T23:38:56.999Z,33.53
2019-02-02T23:41:25.870Z,34.30
2019-02-02T23:43:55.004Z,34.20
2019-02-02T23:46:23.607Z,33.90
2019-02-02T23:48:52.260Z,34.43
2019-02-02T23:51:22.577Z,33.63
2019-02-02T23:53:52.682Z,33.43
2019-02-02T23:56:32.342Z,35.10
2019-02-02T23:58:57.994Z,35.27
